createdAt,value
2019-03-23T00:02:50.054Z,7.00
2019-03-23T00:07:54.254Z,7.00
2019-03-23T00:12:58.732Z,6.90
2019-03-23T00:18:03.051Z,6.90
2019-03-23T00:23:07.304Z,6.80
2019-03-23T00:28:11.916Z,6.80
2019-03-23T00:33:16.143Z,6.80
2019-03-23T00:38:20.695Z,6.80
2019-03-23T00:43:24.930Z,6.80
2019-03-23T00:48:29.198Z,6.80
2019-03-23T00:53:33.483Z,6.80
2019-03-23T00:58:37.793Z,6.70
2019-03-23T01:03:42.052Z,6.70
2019-03-23T01:08:46.545Z,6.60
2019-03-23T01:13:50.796Z,6.50
2019-03-23T01:18:55.296Z,6.50
2019-03-23T01:23:59.726Z,6.50
2019-03-23T01:29:03.964Z,6.50
2019-03-23T01:34:08.221Z,6.50
2019-03-23T01:39:12.466Z,6.40
2019-03-23T01:44:16.716Z,6.40
2019-03-23T01:49:21.069Z,6.30
2019-03-23T01:54:25.327Z,6.30
2019-03-23T01:59:29.585Z,6.30
2019-03-23T02:04:33.838Z,6.30
2019-03-23T02:09:38.049Z,6.20
2019-03-23T02:14:42.337Z,6.20
2019-03-23T02:19:46.664Z,6.20
2019-03-23T02:24:50.932Z,6.20
2019-03-23T02:29:55.204Z,6.20
2019-03-23T02:34:59.667Z,6.20
2019-03-23T02:40:04.136Z,6.20
2019-03-23T02:45:08.746Z,6.20
2019-03-23T02:50:13.042Z,6.20
2019-03-23T02:55:17.251Z,6.20
2019-03-23T03:00:23.323Z,6.30
2019-03-23T03:05:27.537Z,6.30
2019-03-23T03:10:40.218Z,6.30
2019-03-23T03:15:44.434Z,6.30
2019-03-23T03:20:48.649Z,6.30
2019-03-23T03:25:52.868Z,6.30
2019-03-23T03:30:57.097Z,6.30
2019-03-23T03:36:01.321Z,6.30
2019-03-23T03:41:05.646Z,6.30
2019-03-23T03:46:10.222Z,6.30
2019-03-23T03:51:14.695Z,6.30
2019-03-23T03:56:18.982Z,6.30
2019-03-23T04:01:23.192Z,6.30
2019-03-23T04:06:27.673Z,6.30
2019-03-23T04:11:31.870Z,6.30
2019-03-23T04:16:36.072Z,6.30
2019-03-23T04:21:40.280Z,6.40
2019-03-23T04:26:44.489Z,6.40
2019-03-23T04:31:48.758Z,6.40
2019-03-23T04:36:53.044Z,6.40
2019-03-23T04:41:57.279Z,6.40
2019-03-23T04:47:01.490Z,6.50
2019-03-23T04:52:05.766Z,6.50
2019-03-23T04:57:09.989Z,6.60
2019-03-23T05:02:14.197Z,6.60
2019-03-23T05:07:18.499Z,6.60
2019-03-23T05:12:22.708Z,6.60
2019-03-23T05:17:26.927Z,6.70
2019-03-23T05:22:31.135Z,6.70
2019-03-23T05:27:35.358Z,6.70
2019-03-23T05:32:39.564Z,6.70
2019-03-23T05:37:43.782Z,6.80
2019-03-23T05:42:48.135Z,6.80
2019-03-23T05:47:53.190Z,6.90
2019-03-23T05:52:57.665Z,6.90
2019-03-23T05:58:02.141Z,6.90
2019-03-23T06:03:06.822Z,7.00
2019-03-23T06:08:11.284Z,7.00
2019-03-23T06:13:15.753Z,7.00
2019-03-23T06:18:19.999Z,7.10
2019-03-23T06:23:24.460Z,7.10
2019-03-23T06:28:28.670Z,7.20
2019-03-23T06:33:33.913Z,7.20
2019-03-23T06:38:38.127Z,7.30
2019-03-23T06:43:42.673Z,7.30
2019-03-23T06:48:47.321Z,7.40
2019-03-23T06:53:51.531Z,7.40
2019-03-23T06:58:55.762Z,7.50
2019-03-23T07:04:00.745Z,7.50
2019-03-23T07:09:15.718Z,7.50
2019-03-23T07:14:12.240Z,7.60
2019-03-23T07:19:16.451Z,7.70
2019-03-23T07:24:20.952Z,7.70
2019-03-23T07:29:25.176Z,7.80
2019-03-23T07:34:29.412Z,7.80
2019-03-23T07:39:33.628Z,7.90
2019-03-23T07:44:37.884Z,8.00
2019-03-23T07:49:42.193Z,8.10
2019-03-23T07:54:46.672Z,8.10
2019-03-23T07:59:51.164Z,8.20
2019-03-23T08:04:56.763Z,8.30
2019-03-23T08:10:01.004Z,8.40
2019-03-23T08:15:07.329Z,8.50
2019-03-23T08:20:11.730Z,8.60
2019-03-23T08:25:15.935Z,8.70
2019-03-23T08:30:20.226Z,8.80
2019-03-23T08:35:24.444Z,8.90
2019-03-23T08:40:29.012Z,9.00
2019-03-23T08:45:33.231Z,9.10
2019-03-23T08:50:37.684Z,9.20
2019-03-23T08:55:41.989Z,9.30
2019-03-23T09:00:47.065Z,9.40
2019-03-23T09:05:51.254Z,9.50
2019-03-23T09:10:55.493Z,9.60
2019-03-23T09:16:00.034Z,9.70
2019-03-23T09:21:04.622Z,9.80
2019-03-23T09:26:09.136Z,9.80
2019-03-23T09:31:13.474Z,9.90
2019-03-23T09:36:17.891Z,9.90
2019-03-23T09:41:22.592Z,10.00
2019-03-23T09:46:27.182Z,10.10
2019-03-23T09:51:31.612Z,10.10
2019-03-23T09:56:36.334Z,10.10
2019-03-23T10:01:40.568Z,10.10
2019-03-23T10:06:45.079Z,10.20
2019-03-23T10:11:49.293Z,10.30
2019-03-23T10:16:53.844Z,10.30
2019-03-23T10:21:58.171Z,10.40
2019-03-23T10:27:02.451Z,10.50
2019-03-23T10:32:06.975Z,10.50
2019-03-23T10:37:11.215Z,10.60
2019-03-23T10:42:16.358Z,10.70
2019-03-23T10:47:21.622Z,10.80
2019-03-23T10:52:26.384Z,10.80
2019-03-23T10:57:30.831Z,10.80
2019-03-23T11:02:36.365Z,10.80
2019-03-23T11:07:40.571Z,10.80
2019-03-23T11:12:44.863Z,10.90
2019-03-23T11:17:49.120Z,10.90
2019-03-23T11:22:54.654Z,11.00
2019-03-23T11:27:58.908Z,11.10
2019-03-23T11:33:03.122Z,11.10
2019-03-23T11:38:11.688Z,11.20
2019-03-23T11:43:15.912Z,11.20
2019-03-23T11:48:20.169Z,11.30
2019-03-23T11:53:24.471Z,11.30
2019-03-23T11:58:29.251Z,11.30
2019-03-23T12:03:33.597Z,11.40
2019-03-23T12:08:40.884Z,11.40
2019-03-23T12:13:45.171Z,11.40
2019-03-23T12:18:49.412Z,11.60
2019-03-23T12:23:53.795Z,11.60
2019-03-23T12:28:58.099Z,11.70
2019-03-23T12:34:02.952Z,11.60
2019-03-23T12:39:07.562Z,11.70
2019-03-23T12:44:11.839Z,11.70
2019-03-23T12:49:16.724Z,11.70
2019-03-23T12:54:21.373Z,11.70
2019-03-23T12:59:25.606Z,11.60
2019-03-23T13:04:29.821Z,11.60
2019-03-23T13:09:36.404Z,11.70
2019-03-23T13:14:41.164Z,11.80
2019-03-23T13:19:46.070Z,11.80
2019-03-23T13:24:50.357Z,11.80
2019-03-23T13:29:54.812Z,11.90
2019-03-23T13:34:59.316Z,11.90
2019-03-23T13:40:03.853Z,12.00
2019-03-23T13:45:09.206Z,12.10
2019-03-23T13:50:15.194Z,12.20
2019-03-23T13:55:27.130Z,12.30
2019-03-23T14:00:31.433Z,12.50
2019-03-23T14:05:36.259Z,12.60
2019-03-23T14:10:40.475Z,12.70
2019-03-23T14:15:44.771Z,12.70
2019-03-23T14:20:49.226Z,12.70
2019-03-23T14:25:53.495Z,12.70
2019-03-23T14:30:57.760Z,12.80
2019-03-23T14:36:02.216Z,12.90
2019-03-23T14:41:06.442Z,13.00
2019-03-23T14:46:10.675Z,13.10
2019-03-23T14:51:14.891Z,13.20
2019-03-23T14:56:19.104Z,13.30
2019-03-23T15:01:23.556Z,13.30
2019-03-23T15:06:27.762Z,13.40
2019-03-23T15:11:31.988Z,13.40
2019-03-23T15:16:36.186Z,13.30
2019-03-23T15:21:40.407Z,13.30
2019-03-23T15:26:45.476Z,13.30
2019-03-23T15:31:49.689Z,13.20
2019-03-23T15:36:53.903Z,13.20
2019-03-23T15:41:58.153Z,13.10
2019-03-23T15:47:02.359Z,13.10
2019-03-23T15:52:06.860Z,13.00
2019-03-23T15:57:11.076Z,13.00
2019-03-23T16:02:15.291Z,13.00
2019-03-23T16:07:29.044Z,12.90
2019-03-23T16:12:34.506Z,12.80
2019-03-23T16:17:31.700Z,12.80
2019-03-23T16:22:35.915Z,12.70
2019-03-23T16:27:40.140Z,12.60
2019-03-23T16:32:44.352Z,12.60
2019-03-23T16:37:49.310Z,12.50
2019-03-23T16:42:53.544Z,12.40
2019-03-23T16:47:57.765Z,12.30
2019-03-23T16:53:01.988Z,12.30
2019-03-23T16:58:16.032Z,12.20
2019-03-23T17:03:15.011Z,12.20
2019-03-23T17:08:19.230Z,12.10
2019-03-23T17:13:23.690Z,12.10
2019-03-23T17:18:27.894Z,12.10
2019-03-23T17:23:32.101Z,12.10
2019-03-23T17:28:36.315Z,12.00
2019-03-23T17:33:40.546Z,12.00
2019-03-23T17:38:45.096Z,12.00
2019-03-23T17:43:49.375Z,12.00
2019-03-23T17:48:53.578Z,12.10
2019-03-23T17:53:59.302Z,12.10
2019-03-23T17:59:03.756Z,12.10
2019-03-23T18:04:07.963Z,12.10
2019-03-23T18:09:12.548Z,12.10
2019-03-23T18:14:17.142Z,12.10
2019-03-23T18:19:21.434Z,12.00
2019-03-23T18:24:25.944Z,11.90
2019-03-23T18:29:30.437Z,11.90
2019-03-23T18:34:35.094Z,11.90
2019-03-23T18:39:43.418Z,11.80
2019-03-23T18:44:50.767Z,11.80
2019-03-23T18:49:57.024Z,11.80
2019-03-23T18:55:01.232Z,11.70
2019-03-23T19:00:05.838Z,11.60
2019-03-23T19:05:10.230Z,11.60
2019-03-23T19:10:14.632Z,11.50
2019-03-23T19:15:18.859Z,11.40
2019-03-23T19:20:23.081Z,11.30
2019-03-23T19:25:27.379Z,11.30
2019-03-23T19:30:31.602Z,11.10
2019-03-23T19:35:35.823Z,11.00
2019-03-23T19:40:40.055Z,10.90
2019-03-23T19:45:44.288Z,10.90
2019-03-23T19:50:48.502Z,10.80
2019-03-23T19:55:52.748Z,10.70
2019-03-23T20:00:56.979Z,10.60
2019-03-23T20:06:01.463Z,10.50
2019-03-23T20:11:05.686Z,10.50
2019-03-23T20:16:10.156Z,10.30
2019-03-23T20:21:14.374Z,10.20
2019-03-23T20:26:20.427Z,10.10
2019-03-23T20:31:25.618Z,10.00
2019-03-23T20:36:30.999Z,9.80
2019-03-23T20:41:35.284Z,9.80
2019-03-23T20:46:39.702Z,9.70
2019-03-23T20:51:44.719Z,9.60
2019-03-23T20:56:49.272Z,9.50
2019-03-23T21:01:54.131Z,9.40
2019-03-23T21:06:58.790Z,9.30
2019-03-23T21:12:03.313Z,9.30
2019-03-23T21:17:07.929Z,9.20
2019-03-23T21:22:13.230Z,9.10
2019-03-23T21:27:24.152Z,9.00
2019-03-23T21:32:29.540Z,9.00
2019-03-23T21:37:34.171Z,8.90
2019-03-23T21:42:38.710Z,8.90
2019-03-23T21:47:43.450Z,8.80
2019-03-23T21:52:47.970Z,8.80
2019-03-23T21:57:52.651Z,8.80
2019-03-23T22:02:58.996Z,8.70
2019-03-23T22:08:04.737Z,8.70
2019-03-23T22:13:09.011Z,8.60
2019-03-23T22:18:13.231Z,8.60
2019-03-23T22:23:17.727Z,8.50
2019-03-23T22:28:21.955Z,8.40
2019-03-23T22:33:26.403Z,8.40
2019-03-23T22:38:30.830Z,8.30
2019-03-23T22:43:35.042Z,8.20
2019-03-23T22:48:39.246Z,8.10
2019-03-23T22:53:43.698Z,8.00
2019-03-23T22:58:47.903Z,8.00
2019-03-23T23:03:52.095Z,7.90
2019-03-23T23:08:56.304Z,7.80
2019-03-23T23:14:00.525Z,7.70
2019-03-23T23:19:04.787Z,7.60
2019-03-23T23:24:08.994Z,7.50
2019-03-23T23:29:13.194Z,7.40
2019-03-23T23:34:17.420Z,7.40
2019-03-23T23:39:21.618Z,7.30
2019-03-23T23:44:25.869Z,7.20
2019-03-23T23:49:30.344Z,7.10
2019-03-23T23:54:34.560Z,7.00
2019-03-23T23:59:38.763Z,7.00
